createdAt,value
2018-02-25T00:00:08.664Z,62.90
2018-02-25T00:02:36.619Z,63.10
2018-02-25T00:05:04.107Z,63.10
2018-02-25T00:07:31.994Z,63.30
2018-02-25T00:09:59.491Z,63.30
2018-02-25T00:12:26.994Z,63.30
2018-02-25T00:14:54.495Z,63.40
2018-02-25T00:17:21.995Z,63.60
2018-02-25T00:19:49.883Z,63.70
2018-02-25T00:22:30.065Z,63.70
2018-02-25T00:24:57.580Z,63.90
2018-02-25T00:27:25.081Z,63.90
2018-02-25T00:29:52.591Z,63.90
2018-02-25T00:32:20.084Z,63.70
2018-02-25T00:34:47.579Z,64.10
2018-02-25T00:37:15.097Z,64.30
2018-02-25T00:39:42.575Z,64.30
2018-02-25T00:42:10.081Z,64.30
2018-02-25T00:44:37.960Z,64.20
2018-02-25T00:47:05.459Z,64.30
2018-02-25T00:49:32.958Z,64.50
2018-02-25T00:52:00.455Z,64.40
2018-02-25T00:54:27.955Z,64.30
2018-02-25T00:56:55.844Z,64.50
2018-02-25T00:59:23.718Z,64.70
2018-02-25T01:01:51.242Z,64.70
2018-02-25T01:04:18.767Z,64.70
2018-02-25T01:06:46.262Z,64.80
2018-02-25T01:09:14.168Z,64.90
2018-02-25T01:11:41.658Z,65.00
2018-02-25T01:14:09.142Z,65.20
2018-02-25T01:16:37.038Z,65.20
2018-02-25T01:19:04.551Z,65.20
2018-02-25T01:21:32.036Z,65.30
2018-02-25T01:23:59.919Z,65.40
2018-02-25T01:26:27.428Z,65.40
2018-02-25T01:28:54.919Z,65.50
2018-02-25T01:31:22.803Z,66.10
2018-02-25T01:33:50.323Z,66.10
2018-02-25T01:36:17.975Z,66.20
2018-02-25T01:38:45.887Z,66.50
2018-02-25T01:41:13.374Z,66.60
2018-02-25T01:43:40.888Z,66.80
2018-02-25T01:46:08.376Z,67.10
2018-02-25T01:48:35.866Z,67.10
2018-02-25T01:51:05.149Z,67.20
2018-02-25T01:53:32.641Z,67.70
2018-02-25T01:56:00.128Z,68.10
2018-02-25T01:58:27.624Z,68.20
2018-02-25T02:00:55.131Z,68.50
2018-02-25T02:03:22.644Z,68.50
2018-02-25T02:05:50.149Z,68.80
2018-02-25T02:08:17.635Z,69.00
2018-02-25T02:10:45.124Z,69.00
2018-02-25T02:13:12.622Z,69.10
2018-02-25T02:15:40.173Z,69.30
2018-02-25T02:18:08.062Z,69.60
2018-02-25T02:20:35.557Z,69.60
2018-02-25T02:23:03.086Z,69.60
2018-02-25T02:25:30.566Z,69.80
2018-02-25T02:27:58.053Z,70.00
2018-02-25T02:30:25.948Z,70.20
2018-02-25T02:32:53.435Z,70.30
2018-02-25T02:35:20.932Z,70.40
2018-02-25T02:37:48.832Z,70.60
2018-02-25T02:40:16.316Z,70.60
2018-02-25T02:42:43.820Z,70.70
2018-02-25T02:45:11.309Z,70.80
2018-02-25T02:47:38.812Z,70.90
2018-02-25T02:50:06.300Z,71.00
2018-02-25T02:52:33.820Z,71.10
2018-02-25T02:55:01.312Z,71.30
2018-02-25T02:57:29.210Z,71.50
2018-02-25T02:59:56.699Z,71.50
2018-02-25T03:02:24.191Z,71.60
2018-02-25T03:04:51.697Z,71.70
2018-02-25T03:07:19.199Z,72.00
2018-02-25T03:09:47.075Z,72.40
2018-02-25T03:12:14.589Z,72.40
2018-02-25T03:14:42.119Z,72.60
2018-02-25T03:17:09.611Z,72.80
2018-02-25T03:19:37.107Z,72.90
2018-02-25T03:22:04.615Z,73.10
2018-02-25T03:24:32.103Z,73.10
2018-02-25T03:27:00.000Z,73.10
2018-02-25T03:29:27.507Z,73.10
2018-02-25T03:31:54.995Z,73.30
2018-02-25T03:34:22.941Z,73.40
2018-02-25T03:36:50.435Z,73.40
2018-02-25T03:39:17.927Z,73.40
2018-02-25T03:41:45.435Z,73.60
2018-02-25T03:44:13.312Z,73.90
2018-02-25T03:46:40.801Z,73.90
2018-02-25T03:49:08.301Z,74.00
2018-02-25T03:51:36.187Z,74.40
2018-02-25T03:54:03.671Z,74.40
2018-02-25T03:56:31.184Z,74.60
2018-02-25T03:58:59.064Z,74.70
2018-02-25T04:01:26.956Z,74.80
2018-02-25T04:03:54.451Z,74.80
2018-02-25T04:06:21.965Z,74.90
2018-02-25T04:08:49.446Z,75.20
2018-02-25T04:11:16.953Z,75.30
2018-02-25T04:13:44.844Z,75.40
2018-02-25T04:16:12.351Z,75.40
2018-02-25T04:18:39.867Z,75.70
2018-02-25T04:21:07.390Z,75.80
2018-02-25T04:23:35.359Z,76.10
2018-02-25T04:26:03.253Z,76.30
2018-02-25T04:28:30.814Z,76.30
2018-02-25T04:30:58.321Z,76.30
2018-02-25T04:33:25.810Z,76.50
2018-02-25T04:35:53.295Z,76.40
2018-02-25T04:38:20.799Z,76.30
2018-02-25T04:40:48.283Z,76.50
2018-02-25T04:43:15.776Z,76.80
2018-02-25T04:45:43.255Z,76.70
2018-02-25T04:48:10.760Z,76.80
2018-02-25T04:50:38.264Z,77.00
2018-02-25T04:53:05.752Z,77.10
2018-02-25T04:55:33.644Z,77.10
2018-02-25T04:58:01.163Z,77.10
2018-02-25T05:00:28.644Z,77.00
2018-02-25T05:02:56.161Z,77.40
2018-02-25T05:05:23.669Z,77.30
2018-02-25T05:07:51.158Z,77.20
2018-02-25T05:10:18.679Z,77.30
2018-02-25T05:12:46.231Z,77.40
2018-02-25T05:15:13.776Z,77.30
2018-02-25T05:17:41.690Z,77.40
2018-02-25T05:20:09.208Z,77.40
2018-02-25T05:22:37.124Z,77.80
2018-02-25T05:25:04.662Z,77.80
2018-02-25T05:27:32.245Z,78.00
2018-02-25T05:29:59.803Z,77.80
2018-02-25T05:32:27.320Z,78.00
2018-02-25T05:34:54.855Z,77.80
2018-02-25T05:37:22.759Z,78.10
2018-02-25T05:39:50.398Z,78.10
2018-02-25T05:42:18.376Z,77.90
2018-02-25T05:44:45.932Z,77.90
2018-02-25T05:47:13.445Z,78.00
2018-02-25T05:49:41.009Z,78.10
2018-02-25T05:52:08.506Z,78.00
2018-02-25T05:54:36.016Z,78.20
2018-02-25T05:57:03.532Z,78.00
2018-02-25T05:59:31.101Z,78.10
2018-02-25T06:01:58.632Z,77.90
2018-02-25T06:04:26.191Z,77.70
2018-02-25T06:06:53.720Z,77.60
2018-02-25T06:09:21.269Z,77.40
2018-02-25T06:11:48.781Z,77.30
2018-02-25T06:14:16.292Z,77.40
2018-02-25T06:16:44.209Z,77.40
2018-02-25T06:19:11.722Z,77.40
2018-02-25T06:21:39.268Z,77.40
2018-02-25T06:24:06.803Z,77.40
2018-02-25T06:26:34.340Z,77.40
2018-02-25T06:29:01.893Z,77.30
2018-02-25T06:31:29.424Z,77.40
2018-02-25T06:33:57.315Z,77.50
2018-02-25T06:36:24.812Z,77.50
2018-02-25T06:38:52.324Z,77.50
2018-02-25T06:41:19.879Z,77.50
2018-02-25T06:43:47.413Z,77.50
2018-02-25T06:46:15.314Z,77.50
2018-02-25T06:48:42.840Z,77.50
2018-02-25T06:51:10.734Z,77.70
2018-02-25T06:53:38.275Z,77.70
2018-02-25T06:56:05.856Z,78.00
2018-02-25T06:58:33.395Z,77.90
2018-02-25T07:01:01.284Z,77.80
2018-02-25T07:03:28.925Z,77.90
2018-02-25T07:05:56.431Z,77.80
2018-02-25T07:08:23.956Z,77.50
2018-02-25T07:10:51.444Z,77.00
2018-02-25T07:13:18.936Z,75.80
2018-02-25T07:15:46.823Z,73.50
2018-02-25T07:18:14.311Z,73.50
2018-02-25T07:20:41.820Z,72.10
2018-02-25T07:23:09.767Z,70.40
2018-02-25T07:25:37.258Z,70.40
2018-02-25T07:28:04.763Z,69.70
2018-02-25T07:30:32.267Z,69.20
2018-02-25T07:33:00.159Z,67.80
2018-02-25T07:35:27.643Z,67.80
2018-02-25T07:37:55.142Z,66.90
2018-02-25T07:40:23.035Z,65.70
2018-02-25T07:42:50.516Z,65.70
2018-02-25T07:45:18.108Z,65.50
2018-02-25T07:47:45.615Z,65.60
2018-02-25T07:50:13.100Z,64.80
2018-02-25T07:52:40.625Z,64.10
2018-02-25T07:55:08.120Z,64.10
2018-02-25T07:57:35.619Z,63.30
2018-02-25T08:00:03.519Z,62.30
2018-02-25T08:02:31.019Z,62.30
2018-02-25T08:04:58.500Z,61.80
2018-02-25T08:07:26.395Z,61.90
2018-02-25T08:09:53.918Z,61.90
2018-02-25T08:12:21.822Z,60.70
2018-02-25T08:14:49.311Z,60.70
2018-02-25T08:17:16.799Z,59.90
2018-02-25T08:19:44.674Z,59.50
2018-02-25T08:22:12.183Z,59.50
2018-02-25T08:24:39.687Z,59.80
2018-02-25T08:27:07.563Z,57.90
2018-02-25T08:29:35.052Z,57.90
2018-02-25T08:32:02.570Z,57.90
2018-02-25T08:34:30.195Z,58.00
2018-02-25T08:36:57.681Z,56.70
2018-02-25T08:39:25.190Z,56.30
2018-02-25T08:41:52.728Z,55.60
2018-02-25T08:44:20.327Z,55.50
2018-02-25T08:46:47.817Z,55.40
2018-02-25T08:49:15.362Z,54.90
2018-02-25T08:51:43.260Z,54.00
2018-02-25T08:54:10.756Z,54.00
2018-02-25T08:56:38.239Z,53.60
2018-02-25T08:59:06.119Z,54.40
2018-02-25T09:01:34.008Z,54.00
2018-02-25T09:04:01.500Z,54.00
2018-02-25T09:06:28.990Z,53.40
2018-02-25T09:08:56.882Z,52.50
2018-02-25T09:11:24.363Z,52.60
2018-02-25T09:13:51.867Z,52.80
2018-02-25T09:16:19.755Z,52.50
2018-02-25T09:18:47.235Z,52.50
2018-02-25T09:21:14.726Z,51.70
2018-02-25T09:23:42.214Z,51.50
2018-02-25T09:26:10.118Z,50.90
2018-02-25T09:28:37.703Z,50.80
2018-02-25T09:31:05.163Z,51.30
2018-02-25T09:33:32.659Z,51.80
2018-02-25T09:36:00.150Z,51.70
2018-02-25T09:38:27.626Z,51.80
2018-02-25T09:40:55.115Z,51.30
2018-02-25T09:43:22.991Z,51.10
2018-02-25T09:45:50.899Z,51.00
2018-02-25T09:48:18.397Z,51.00
2018-02-25T09:50:53.968Z,51.10
2018-02-25T09:53:21.458Z,51.10
2018-02-25T09:55:48.962Z,50.80
2018-02-25T09:58:16.856Z,49.80
2018-02-25T10:00:44.359Z,49.80
2018-02-25T10:03:11.882Z,49.80
2018-02-25T10:05:39.388Z,50.00
2018-02-25T10:08:06.875Z,49.50
2018-02-25T10:10:34.411Z,49.80
2018-02-25T10:13:02.335Z,49.20
2018-02-25T10:15:29.843Z,49.30
2018-02-25T10:17:57.341Z,48.70
2018-02-25T10:20:24.830Z,48.40
2018-02-25T10:22:52.350Z,48.30
2018-02-25T10:25:19.856Z,48.50
2018-02-25T10:27:47.329Z,49.10
2018-02-25T10:30:15.203Z,49.10
2018-02-25T10:32:42.723Z,49.10
2018-02-25T10:35:10.232Z,48.60
2018-02-25T10:37:37.731Z,49.00
2018-02-25T10:40:05.211Z,48.90
2018-02-25T10:42:32.707Z,48.70
2018-02-25T10:45:00.207Z,49.10
2018-02-25T10:47:27.695Z,49.10
2018-02-25T10:49:55.596Z,48.50
2018-02-25T10:52:23.090Z,48.50
2018-02-25T10:54:50.575Z,48.40
2018-02-25T10:57:18.456Z,48.20
2018-02-25T10:59:45.935Z,48.20
2018-02-25T11:02:13.427Z,48.80
2018-02-25T11:04:40.921Z,48.50
2018-02-25T11:07:08.459Z,48.50
2018-02-25T11:09:35.962Z,49.00
2018-02-25T11:12:03.467Z,48.60
2018-02-25T11:14:32.184Z,48.10
2018-02-25T11:16:59.681Z,48.10
2018-02-25T11:19:27.167Z,48.00
2018-02-25T11:21:54.670Z,48.10
2018-02-25T11:24:22.194Z,48.40
2018-02-25T11:26:50.074Z,48.30
2018-02-25T11:29:17.976Z,48.70
2018-02-25T11:31:45.460Z,48.70
2018-02-25T11:34:12.934Z,49.40
2018-02-25T11:36:40.469Z,49.70
2018-02-25T11:39:07.932Z,49.60
2018-02-25T11:41:35.415Z,50.10
2018-02-25T11:44:03.287Z,50.50
2018-02-25T11:46:31.174Z,51.30
2018-02-25T11:48:58.670Z,51.30
2018-02-25T11:51:26.168Z,51.70
2018-02-25T11:53:54.055Z,51.60
2018-02-25T11:56:21.535Z,51.60
2018-02-25T11:58:49.017Z,51.20
2018-02-25T12:01:16.512Z,51.00
2018-02-25T12:03:44.401Z,51.10
2018-02-25T12:06:11.897Z,51.20
2018-02-25T12:08:39.390Z,51.10
2018-02-25T12:11:07.303Z,51.30
2018-02-25T12:13:34.797Z,51.30
2018-02-25T12:16:02.304Z,51.60
2018-02-25T12:18:29.800Z,51.10
2018-02-25T12:20:57.279Z,50.90
2018-02-25T12:23:25.168Z,50.60
2018-02-25T12:25:52.648Z,50.50
2018-02-25T12:28:20.123Z,49.90
2018-02-25T12:30:47.613Z,49.90
2018-02-25T12:33:15.528Z,49.20
2018-02-25T12:35:43.003Z,49.20
2018-02-25T12:38:10.488Z,48.90
2018-02-25T12:40:37.999Z,49.00
2018-02-25T12:43:05.499Z,49.10
2018-02-25T12:45:32.987Z,48.90
2018-02-25T12:48:00.483Z,48.90
2018-02-25T12:50:28.004Z,48.90
2018-02-25T12:52:55.508Z,48.90
2018-02-25T12:55:22.995Z,49.00
2018-02-25T12:57:50.475Z,48.90
2018-02-25T13:00:18.211Z,48.80
2018-02-25T13:02:46.343Z,49.60
2018-02-25T13:05:14.033Z,49.60
2018-02-25T13:07:41.793Z,48.90
2018-02-25T13:10:09.838Z,47.90
2018-02-25T13:12:37.510Z,47.90
2018-02-25T13:15:05.219Z,47.40
2018-02-25T13:17:33.175Z,46.80
2018-02-25T13:20:01.264Z,46.40
2018-02-25T13:22:29.019Z,46.30
2018-02-25T13:24:56.817Z,45.20
2018-02-25T13:27:24.516Z,45.30
2018-02-25T13:29:52.245Z,45.20
2018-02-25T13:32:20.150Z,44.80
2018-02-25T13:34:47.890Z,44.80
2018-02-25T13:37:15.972Z,45.80
2018-02-25T13:39:43.997Z,46.70
2018-02-25T13:42:11.655Z,46.70
2018-02-25T13:44:39.348Z,46.70
2018-02-25T13:47:07.042Z,46.30
2018-02-25T13:49:34.808Z,45.80
2018-02-25T13:52:02.945Z,45.00
2018-02-25T13:54:30.645Z,45.00
2018-02-25T13:56:58.296Z,45.30
2018-02-25T13:59:26.195Z,46.50
2018-02-25T14:01:53.937Z,47.90
2018-02-25T14:04:21.609Z,48.80
2018-02-25T14:06:51.111Z,49.70
2018-02-25T14:09:18.853Z,50.40
2018-02-25T14:11:46.977Z,51.60
2018-02-25T14:14:14.715Z,51.60
2018-02-25T14:16:42.577Z,52.00
2018-02-25T14:19:10.074Z,52.10
2018-02-25T14:21:37.639Z,52.40
2018-02-25T14:24:05.127Z,52.80
2018-02-25T14:26:32.620Z,52.90
2018-02-25T14:29:00.161Z,53.20
2018-02-25T14:31:28.112Z,53.30
2018-02-25T14:33:56.031Z,53.50
2018-02-25T14:36:23.695Z,53.50
2018-02-25T14:38:51.289Z,53.10
2018-02-25T14:41:19.664Z,53.10
2018-02-25T14:43:48.161Z,53.10
2018-02-25T14:46:16.481Z,53.20
2018-02-25T14:48:44.559Z,53.20
2018-02-25T14:51:12.040Z,53.40
2018-02-25T14:53:39.704Z,53.40
2018-02-25T14:56:07.334Z,53.80
2018-02-25T14:58:34.908Z,54.00
2018-02-25T15:01:03.078Z,54.10
2018-02-25T15:03:30.785Z,54.20
2018-02-25T15:05:58.875Z,54.50
2018-02-25T15:08:26.521Z,54.50
2018-02-25T15:10:54.247Z,55.10
2018-02-25T15:13:22.336Z,55.70
2018-02-25T15:15:50.448Z,55.60
2018-02-25T15:18:18.354Z,55.60
2018-02-25T15:20:45.969Z,56.00
2018-02-25T15:23:13.740Z,56.30
2018-02-25T15:25:41.435Z,56.40
2018-02-25T15:28:09.097Z,57.00
2018-02-25T15:30:36.734Z,57.30
2018-02-25T15:33:04.407Z,57.40
2018-02-25T15:35:32.242Z,57.80
2018-02-25T15:37:59.891Z,58.20
2018-02-25T15:40:27.544Z,58.90
2018-02-25T15:42:55.259Z,59.10
2018-02-25T15:45:22.869Z,58.90
2018-02-25T15:47:50.587Z,59.00
2018-02-25T15:50:18.286Z,59.40
2018-02-25T15:52:46.826Z,59.80
2018-02-25T15:55:14.498Z,60.10
2018-02-25T15:57:42.205Z,60.00
2018-02-25T16:00:09.864Z,59.90
2018-02-25T16:02:37.619Z,60.10
2018-02-25T16:05:05.661Z,60.40
2018-02-25T16:07:33.801Z,60.50
2018-02-25T16:10:01.574Z,60.50
2018-02-25T16:12:29.127Z,60.00
2018-02-25T16:14:56.835Z,59.90
2018-02-25T16:17:24.896Z,59.90
2018-02-25T16:19:52.583Z,59.90
2018-02-25T16:22:20.194Z,59.80
2018-02-25T16:24:48.273Z,60.00
2018-02-25T16:27:16.013Z,60.00
2018-02-25T16:29:43.783Z,59.90
2018-02-25T16:32:11.569Z,60.00
2018-02-25T16:34:39.660Z,60.40
2018-02-25T16:37:07.390Z,60.40
2018-02-25T16:39:35.103Z,60.30
2018-02-25T16:42:03.278Z,60.80
2018-02-25T16:44:31.757Z,60.80
2018-02-25T16:46:59.304Z,61.00
2018-02-25T16:49:27.199Z,61.50
2018-02-25T16:51:54.701Z,61.50
2018-02-25T16:54:22.227Z,61.70
2018-02-25T16:56:49.725Z,61.90
2018-02-25T16:59:17.258Z,62.60
2018-02-25T17:01:44.751Z,62.60
2018-02-25T17:04:12.231Z,62.90
2018-02-25T17:06:39.726Z,63.10
2018-02-25T17:09:07.370Z,63.10
2018-02-25T17:11:34.903Z,63.20
2018-02-25T17:14:02.398Z,63.60
2018-02-25T17:16:29.944Z,63.90
2018-02-25T17:18:57.612Z,64.30
2018-02-25T17:21:25.185Z,64.70
2018-02-25T17:23:52.787Z,65.20
2018-02-25T17:26:20.288Z,65.30
2018-02-25T17:28:47.849Z,65.60
2018-02-25T17:31:15.383Z,65.90
2018-02-25T17:33:42.867Z,66.40
2018-02-25T17:36:10.362Z,66.50
2018-02-25T17:38:37.977Z,66.90
2018-02-25T17:41:05.498Z,67.10
2018-02-25T17:43:33.404Z,67.50
2018-02-25T17:46:00.959Z,67.50
2018-02-25T17:48:28.444Z,67.80
2018-02-25T17:50:55.952Z,68.00
2018-02-25T17:53:23.483Z,68.30
2018-02-25T17:55:51.097Z,68.50
2018-02-25T17:58:18.920Z,68.80
2018-02-25T18:00:46.883Z,68.90
2018-02-25T18:03:14.793Z,69.00
2018-02-25T18:05:42.276Z,69.00
2018-02-25T18:08:09.843Z,69.20
2018-02-25T18:10:37.385Z,69.30
2018-02-25T18:13:04.923Z,69.30
2018-02-25T18:15:32.449Z,69.40
2018-02-25T18:18:00.520Z,70.00
2018-02-25T18:20:28.424Z,70.30
2018-02-25T18:22:55.910Z,70.30
2018-02-25T18:25:23.519Z,70.70
2018-02-25T18:27:51.143Z,71.00
2018-02-25T18:30:18.679Z,71.30
2018-02-25T18:32:46.190Z,71.60
2018-02-25T18:35:13.724Z,71.80
2018-02-25T18:37:41.197Z,72.10
2018-02-25T18:40:09.102Z,72.80
2018-02-25T18:42:36.641Z,72.80
2018-02-25T18:45:04.288Z,73.20
2018-02-25T18:47:31.772Z,73.60
2018-02-25T18:49:59.277Z,73.80
2018-02-25T18:52:27.203Z,74.80
2018-02-25T18:54:54.723Z,74.80
2018-02-25T18:57:22.233Z,75.00
2018-02-25T18:59:49.825Z,75.50
2018-02-25T19:02:17.788Z,76.20
2018-02-25T19:04:45.687Z,76.60
2018-02-25T19:07:13.697Z,76.90
2018-02-25T19:09:41.327Z,76.90
2018-02-25T19:12:08.828Z,77.00
2018-02-25T19:14:36.326Z,77.10
2018-02-25T19:17:03.914Z,77.50
2018-02-25T19:19:31.498Z,77.50
2018-02-25T19:21:58.981Z,77.70
2018-02-25T19:24:26.956Z,78.20
2018-02-25T19:26:54.839Z,78.00
2018-02-25T19:29:22.341Z,78.00
2018-02-25T19:31:50.092Z,78.20
2018-02-25T19:34:17.621Z,78.40
2018-02-25T19:36:50.795Z,78.60
2018-02-25T19:39:23.954Z,78.80
2018-02-25T19:41:53.348Z,78.90
2018-02-25T19:44:20.847Z,79.00
2018-02-25T19:46:48.355Z,78.90
2018-02-25T19:49:15.848Z,78.80
2018-02-25T19:51:43.370Z,78.90
2018-02-25T19:54:10.891Z,78.80
2018-02-25T19:56:38.388Z,78.70
2018-02-25T19:59:05.872Z,78.60
2018-02-25T20:01:33.807Z,79.00
2018-02-25T20:04:01.296Z,79.00
2018-02-25T20:06:29.211Z,79.30
2018-02-25T20:08:56.716Z,79.30
2018-02-25T20:11:24.618Z,79.10
2018-02-25T20:13:52.168Z,79.10
2018-02-25T20:16:19.713Z,79.30
2018-02-25T20:18:47.229Z,79.60
2018-02-25T20:21:14.767Z,79.40
2018-02-25T20:23:42.292Z,79.40
2018-02-25T20:26:09.813Z,79.20
2018-02-25T20:28:37.547Z,79.30
2018-02-25T20:31:05.037Z,79.20
2018-02-25T20:33:32.669Z,79.30
2018-02-25T20:36:00.160Z,79.30
2018-02-25T20:38:27.656Z,79.50
2018-02-25T20:40:55.139Z,79.60
2018-02-25T20:43:22.640Z,79.60
2018-02-25T20:45:50.527Z,79.80
2018-02-25T20:48:18.067Z,79.80
2018-02-25T20:50:46.014Z,80.50
2018-02-25T20:53:13.513Z,80.50
2018-02-25T20:55:41.448Z,80.40
2018-02-25T20:58:08.928Z,80.50
2018-02-25T21:00:36.473Z,81.20
2018-02-25T21:03:04.370Z,81.50
2018-02-25T21:05:31.895Z,81.50
2018-02-25T21:07:59.799Z,81.90
2018-02-25T21:10:27.295Z,81.90
2018-02-25T21:12:54.792Z,82.00
2018-02-25T21:15:22.693Z,82.10
2018-02-25T21:17:50.213Z,82.10
2018-02-25T21:20:18.113Z,82.30
2018-02-25T21:22:45.627Z,82.30
2018-02-25T21:25:13.549Z,82.80
2018-02-25T21:27:41.056Z,82.80
2018-02-25T21:30:08.950Z,82.90
2018-02-25T21:32:36.464Z,82.90
2018-02-25T21:35:03.982Z,82.90
2018-02-25T21:37:31.491Z,82.90
2018-02-25T21:39:58.979Z,83.00
2018-02-25T21:42:26.476Z,82.80
2018-02-25T21:44:54.000Z,82.90
2018-02-25T21:47:21.520Z,82.90
2018-02-25T21:49:49.019Z,82.80
2018-02-25T21:52:16.560Z,83.00
2018-02-25T21:54:49.725Z,82.90
2018-02-25T21:57:23.371Z,83.40
2018-02-25T21:59:56.738Z,83.40
2018-02-25T22:02:29.879Z,83.50
2018-02-25T22:04:57.365Z,83.60
2018-02-25T22:07:25.242Z,83.70
2018-02-25T22:09:53.134Z,83.70
2018-02-25T22:12:20.624Z,83.70
2018-02-25T22:14:48.139Z,83.80
2018-02-25T22:17:16.911Z,83.80
2018-02-25T22:19:44.818Z,83.90
2018-02-25T22:22:12.339Z,83.90
2018-02-25T22:24:39.909Z,84.00
2018-02-25T22:27:07.464Z,84.10
2018-02-25T22:29:34.975Z,84.10
2018-02-25T22:32:02.473Z,84.00
2018-02-25T22:34:30.095Z,83.90
2018-02-25T22:36:57.651Z,83.70
2018-02-25T22:39:25.154Z,83.70
2018-02-25T22:41:52.648Z,83.80
2018-02-25T22:44:20.182Z,83.70
2018-02-25T22:46:47.681Z,83.60
2018-02-25T22:49:15.204Z,83.60
2018-02-25T22:51:43.888Z,83.70
2018-02-25T22:54:11.594Z,83.60
2018-02-25T22:56:39.118Z,83.80
2018-02-25T22:59:06.621Z,83.60
2018-02-25T23:01:34.507Z,83.30
2018-02-25T23:04:02.027Z,83.30
2018-02-25T23:06:29.523Z,83.30
2018-02-25T23:08:57.011Z,83.40
2018-02-25T23:11:24.503Z,83.50
2018-02-25T23:13:51.991Z,83.20
2018-02-25T23:16:19.491Z,83.20
2018-02-25T23:18:47.020Z,83.00
2018-02-25T23:21:14.587Z,83.00
2018-02-25T23:23:42.084Z,82.80
2018-02-25T23:26:09.589Z,82.80
2018-02-25T23:28:37.100Z,82.70
2018-02-25T23:31:04.632Z,82.70
2018-02-25T23:33:32.180Z,82.80
2018-02-25T23:35:59.667Z,82.90
2018-02-25T23:38:27.184Z,83.10
2018-02-25T23:40:54.800Z,83.10
2018-02-25T23:43:22.783Z,83.20
2018-02-25T23:45:50.849Z,83.30
2018-02-25T23:48:18.866Z,83.20
2018-02-25T23:50:46.567Z,83.20
2018-02-25T23:53:14.070Z,83.00
2018-02-25T23:55:41.564Z,83.00
2018-02-25T23:58:09.112Z,83.00
